VJC343 VVBM-VVTS
Flight info
| Callsign | VJC343 |
|---|---|
| Flight time | 0h 29m |
| Altitude | 20000 |
| Route | DOVIN2F DOVIN DOVIN5E |
| Aircraft | A21N/M-SDE2E3FGHIRWXY/LB1 |
Departure
| Time | 2026-05-06 16:39 |
|---|---|
| Airport | Buon Ma Thuot Airport (VVBM) |
Arrival
| Time | 2026-05-06 17:08 |
|---|---|
| Airport | Tan Son Nhat International Airport (VVTS) |
| Time | Latitude | Longitude | Altitude | Speed | Heading |
|---|---|---|---|---|---|
| 2026-05-06 16:14 | 12.66595 | 108.11741 | 1734 ft | 0 kts | 181° |
| 2026-05-06 16:33 | 12.66557 | 108.11723 | 1733 ft | 8 kts | 251° |
| 2026-05-06 16:34 | 12.66601 | 108.11621 | 1733 ft | 12 kts | 3° |
| 2026-05-06 16:34 | 12.66671 | 108.11652 | 1733 ft | 5 kts | 344° |
| 2026-05-06 16:34 | 12.66709 | 108.11653 | 1733 ft | 6 kts | 2° |
| 2026-05-06 16:34 | 12.66761 | 108.11655 | 1733 ft | 9 kts | 2° |
| 2026-05-06 16:35 | 12.66831 | 108.11671 | 1733 ft | 13 kts | 60° |
| 2026-05-06 16:35 | 12.66837 | 108.11772 | 1733 ft | 16 kts | 90° |
| 2026-05-06 16:35 | 12.66836 | 108.11894 | 1734 ft | 19 kts | 90° |
| 2026-05-06 16:35 | 12.66834 | 108.12036 | 1734 ft | 21 kts | 90° |
| 2026-05-06 16:36 | 12.66833 | 108.12197 | 1735 ft | 24 kts | 90° |
| 2026-05-06 16:36 | 12.66827 | 108.12378 | 1734 ft | 27 kts | 91° |
| 2026-05-06 16:36 | 12.66825 | 108.12572 | 1734 ft | 28 kts | 91° |
| 2026-05-06 16:36 | 12.66821 | 108.12771 | 1733 ft | 29 kts | 91° |
| 2026-05-06 16:37 | 12.66817 | 108.12979 | 1733 ft | 30 kts | 91° |
| 2026-05-06 16:37 | 12.66813 | 108.13180 | 1732 ft | 26 kts | 91° |
| 2026-05-06 16:37 | 12.66799 | 108.13336 | 1732 ft | 21 kts | 125° |
| 2026-05-06 16:37 | 12.66826 | 108.13367 | 1732 ft | 12 kts | 283° |
| 2026-05-06 16:38 | 12.66830 | 108.13275 | 1732 ft | 14 kts | 261° |
| 2026-05-06 16:38 | 12.66818 | 108.13163 | 1732 ft | 24 kts | 268° |
| 2026-05-06 16:38 | 12.66822 | 108.12757 | 1733 ft | 93 kts | 269° |
| 2026-05-06 16:38 | 12.66834 | 108.11861 | 1734 ft | 154 kts | 271° |
| 2026-05-06 16:39 | 12.66849 | 108.10667 | 1844 ft | 176 kts | 271° |
| 2026-05-06 16:39 | 12.66858 | 108.09431 | 2292 ft | 180 kts | 272° |
| 2026-05-06 16:39 | 12.66883 | 108.08111 | 2683 ft | 188 kts | 272° |
| 2026-05-06 16:39 | 12.66904 | 108.06767 | 3232 ft | 187 kts | 270° |
| 2026-05-06 16:40 | 12.66927 | 108.05395 | 3600 ft | 201 kts | 271° |
| 2026-05-06 16:40 | 12.66847 | 108.03945 | 3927 ft | 214 kts | 253° |
| 2026-05-06 16:40 | 12.66074 | 108.02620 | 4321 ft | 224 kts | 221° |
| 2026-05-06 16:40 | 12.64682 | 108.01885 | 4725 ft | 231 kts | 188° |
| 2026-05-06 16:41 | 12.63051 | 108.02017 | 5036 ft | 246 kts | 157° |
| 2026-05-06 16:41 | 12.61516 | 108.02863 | 5382 ft | 261 kts | 147° |
| 2026-05-06 16:41 | 12.59803 | 108.03625 | 5844 ft | 278 kts | 168° |
| 2026-05-06 16:41 | 12.57855 | 108.03485 | 6487 ft | 286 kts | 194° |
| 2026-05-06 16:42 | 12.55938 | 108.02871 | 7186 ft | 290 kts | 197° |
| 2026-05-06 16:42 | 12.54005 | 108.02254 | 7886 ft | 292 kts | 195° |
| 2026-05-06 16:42 | 12.52036 | 108.01687 | 8538 ft | 296 kts | 193° |
| 2026-05-06 16:42 | 12.50034 | 108.01150 | 9229 ft | 298 kts | 193° |
| 2026-05-06 16:43 | 12.48014 | 108.00634 | 9902 ft | 300 kts | 192° |
| 2026-05-06 16:43 | 12.45983 | 108.00128 | 10348 ft | 310 kts | 192° |
| 2026-05-06 16:43 | 12.43797 | 107.99609 | 10621 ft | 326 kts | 189° |
| 2026-05-06 16:43 | 12.41517 | 107.99505 | 10831 ft | 340 kts | 172° |
| 2026-05-06 16:44 | 12.39135 | 107.99964 | 11059 ft | 355 kts | 166° |
| 2026-05-06 16:44 | 12.36672 | 108.00552 | 11272 ft | 371 kts | 166° |
| 2026-05-06 16:44 | 12.34216 | 108.01141 | 11535 ft | 382 kts | 166° |
| 2026-05-06 16:44 | 12.31611 | 108.01748 | 12040 ft | 386 kts | 166° |
| 2026-05-06 16:45 | 12.28981 | 108.02352 | 12613 ft | 389 kts | 166° |
| 2026-05-06 16:45 | 12.26326 | 108.02956 | 13171 ft | 391 kts | 167° |
| 2026-05-06 16:45 | 12.23652 | 108.03557 | 13713 ft | 394 kts | 167° |
| 2026-05-06 16:45 | 12.20964 | 108.04164 | 14188 ft | 397 kts | 167° |
| 2026-05-06 16:46 | 12.18284 | 108.04768 | 14658 ft | 400 kts | 167° |
| 2026-05-06 16:46 | 12.15557 | 108.05382 | 15141 ft | 402 kts | 166° |
| 2026-05-06 16:46 | 12.12822 | 108.06003 | 15648 ft | 404 kts | 166° |
| 2026-05-06 16:46 | 12.10055 | 108.06629 | 16144 ft | 407 kts | 166° |
| 2026-05-06 16:47 | 12.07286 | 108.07258 | 16646 ft | 409 kts | 167° |
| 2026-05-06 16:47 | 12.04498 | 108.07889 | 17134 ft | 412 kts | 167° |
| 2026-05-06 16:47 | 12.01694 | 108.08522 | 17624 ft | 414 kts | 167° |
| 2026-05-06 16:47 | 11.98868 | 108.09167 | 18113 ft | 416 kts | 167° |
| 2026-05-06 16:48 | 11.96018 | 108.09744 | 18512 ft | 419 kts | 172° |
| 2026-05-06 16:48 | 11.93089 | 108.09786 | 18876 ft | 423 kts | 186° |
| 2026-05-06 16:48 | 11.90230 | 108.09087 | 19243 ft | 426 kts | 200° |
| 2026-05-06 16:48 | 11.88455 | 108.08220 | 19473 ft | 429 kts | 210° |
| 2026-05-06 16:49 | 11.86030 | 108.06432 | 19831 ft | 432 kts | 217° |
| 2026-05-06 16:49 | 11.82916 | 108.03880 | 19991 ft | 430 kts | 218° |
| 2026-05-06 16:49 | 11.81336 | 108.02591 | 19998 ft | 430 kts | 218° |
| 2026-05-06 16:49 | 11.78235 | 108.00085 | 19968 ft | 429 kts | 217° |
| 2026-05-06 16:50 | 11.76679 | 107.98838 | 19968 ft | 429 kts | 217° |
| 2026-05-06 16:50 | 11.74329 | 107.96961 | 19956 ft | 429 kts | 217° |
| 2026-05-06 16:50 | 11.71980 | 107.95083 | 19953 ft | 429 kts | 217° |
| 2026-05-06 16:50 | 11.69633 | 107.93206 | 19949 ft | 429 kts | 217° |
| 2026-05-06 16:51 | 11.67284 | 107.91328 | 19947 ft | 429 kts | 217° |
| 2026-05-06 16:51 | 11.64928 | 107.89448 | 19947 ft | 429 kts | 217° |
| 2026-05-06 16:51 | 11.62583 | 107.87581 | 19941 ft | 428 kts | 217° |
| 2026-05-06 16:51 | 11.60226 | 107.85706 | 19933 ft | 428 kts | 217° |
| 2026-05-06 16:52 | 11.57879 | 107.83832 | 19933 ft | 428 kts | 217° |
| 2026-05-06 16:52 | 11.55534 | 107.81962 | 19931 ft | 428 kts | 217° |
| 2026-05-06 16:52 | 11.53186 | 107.80094 | 19930 ft | 428 kts | 217° |
| 2026-05-06 16:52 | 11.50865 | 107.78252 | 19929 ft | 428 kts | 217° |
| 2026-05-06 16:53 | 11.48510 | 107.76378 | 19927 ft | 428 kts | 217° |
| 2026-05-06 16:53 | 11.46167 | 107.74510 | 19919 ft | 428 kts | 217° |
| 2026-05-06 16:53 | 11.43813 | 107.72640 | 19906 ft | 429 kts | 217° |
| 2026-05-06 16:53 | 11.41459 | 107.70772 | 19904 ft | 428 kts | 217° |
| 2026-05-06 16:54 | 11.39115 | 107.68902 | 19908 ft | 428 kts | 217° |
| 2026-05-06 16:54 | 11.36770 | 107.67031 | 19904 ft | 428 kts | 217° |
| 2026-05-06 16:54 | 11.34417 | 107.65158 | 19892 ft | 429 kts | 217° |
| 2026-05-06 16:54 | 11.32067 | 107.63291 | 19894 ft | 429 kts | 217° |
| 2026-05-06 16:55 | 11.29717 | 107.61422 | 19890 ft | 429 kts | 217° |
| 2026-05-06 16:55 | 11.27359 | 107.59553 | 19883 ft | 428 kts | 217° |
| 2026-05-06 16:55 | 11.25042 | 107.57709 | 19878 ft | 428 kts | 217° |
| 2026-05-06 16:55 | 11.22701 | 107.55847 | 19350 ft | 424 kts | 217° |
| 2026-05-06 16:56 | 11.20518 | 107.53814 | 18372 ft | 429 kts | 229° |
| 2026-05-06 16:56 | 11.18896 | 107.51239 | 17303 ft | 434 kts | 242° |
| 2026-05-06 16:56 | 11.17528 | 107.48509 | 16485 ft | 431 kts | 243° |
| 2026-05-06 16:56 | 11.16165 | 107.45807 | 15765 ft | 426 kts | 242° |
| 2026-05-06 16:57 | 11.14791 | 107.43142 | 15003 ft | 423 kts | 242° |
| 2026-05-06 16:57 | 11.13418 | 107.40511 | 14382 ft | 418 kts | 242° |
| 2026-05-06 16:57 | 11.12065 | 107.37927 | 14029 ft | 406 kts | 242° |
| 2026-05-06 16:57 | 11.10775 | 107.35476 | 13882 ft | 389 kts | 242° |
| 2026-05-06 16:58 | 11.09530 | 107.33111 | 13840 ft | 370 kts | 242° |
| 2026-05-06 16:58 | 11.08339 | 107.30860 | 13819 ft | 351 kts | 241° |
| 2026-05-06 16:58 | 11.07206 | 107.28728 | 13759 ft | 334 kts | 242° |
| 2026-05-06 16:58 | 11.06122 | 107.26683 | 13413 ft | 323 kts | 242° |
| 2026-05-06 16:59 | 11.05057 | 107.24665 | 12775 ft | 322 kts | 242° |
| 2026-05-06 16:59 | 11.04009 | 107.22666 | 12162 ft | 320 kts | 242° |
| 2026-05-06 16:59 | 11.02967 | 107.20680 | 11613 ft | 317 kts | 242° |
| 2026-05-06 16:59 | 11.01925 | 107.18701 | 11005 ft | 316 kts | 242° |
| 2026-05-06 17:00 | 11.00905 | 107.16765 | 10486 ft | 313 kts | 241° |
| 2026-05-06 17:00 | 10.99880 | 107.14818 | 9918 ft | 312 kts | 241° |
| 2026-05-06 17:00 | 10.98857 | 107.12880 | 9386 ft | 309 kts | 241° |
| 2026-05-06 17:00 | 10.97842 | 107.10954 | 8802 ft | 306 kts | 241° |
| 2026-05-06 17:01 | 10.96838 | 107.09056 | 8236 ft | 304 kts | 241° |
| 2026-05-06 17:01 | 10.95835 | 107.07160 | 7668 ft | 302 kts | 241° |
| 2026-05-06 17:01 | 10.94847 | 107.05288 | 7126 ft | 299 kts | 241° |
| 2026-05-06 17:01 | 10.93875 | 107.03452 | 6598 ft | 297 kts | 241° |
| 2026-05-06 17:02 | 10.92899 | 107.01611 | 6071 ft | 294 kts | 241° |
| 2026-05-06 17:02 | 10.91930 | 106.99788 | 5532 ft | 291 kts | 241° |
| 2026-05-06 17:02 | 10.90975 | 106.97985 | 5007 ft | 288 kts | 241° |
| 2026-05-06 17:02 | 10.90030 | 106.96195 | 4486 ft | 285 kts | 241° |
| 2026-05-06 17:03 | 10.89099 | 106.94440 | 4103 ft | 276 kts | 240° |
| 2026-05-06 17:03 | 10.88189 | 106.92746 | 3986 ft | 269 kts | 241° |
| 2026-05-06 17:03 | 10.87355 | 106.91099 | 3950 ft | 253 kts | 248° |
| 2026-05-06 17:03 | 10.87078 | 106.89355 | 3877 ft | 252 kts | 274° |
| 2026-05-06 17:04 | 10.87320 | 106.87624 | 3603 ft | 249 kts | 281° |
| 2026-05-06 17:04 | 10.87634 | 106.85897 | 3254 ft | 248 kts | 280° |
| 2026-05-06 17:04 | 10.87965 | 106.84173 | 2909 ft | 247 kts | 281° |
| 2026-05-06 17:04 | 10.88165 | 106.82437 | 2531 ft | 246 kts | 268° |
| 2026-05-06 17:05 | 10.87946 | 106.80742 | 2269 ft | 238 kts | 253° |
| 2026-05-06 17:05 | 10.87403 | 106.79201 | 2062 ft | 225 kts | 240° |
| 2026-05-06 17:05 | 10.86818 | 106.77810 | 2013 ft | 203 kts | 248° |
| 2026-05-06 17:05 | 10.86331 | 106.76538 | 1974 ft | 182 kts | 247° |
| 2026-05-06 17:06 | 10.85896 | 106.75389 | 1843 ft | 171 kts | 246° |
| 2026-05-06 17:06 | 10.85496 | 106.74331 | 1645 ft | 152 kts | 244° |
| 2026-05-06 17:06 | 10.85023 | 106.73378 | 1339 ft | 150 kts | 236° |
| 2026-05-06 17:06 | 10.84531 | 106.72430 | 1086 ft | 153 kts | 242° |
| 2026-05-06 17:07 | 10.84112 | 106.71425 | 913 ft | 154 kts | 244° |
| 2026-05-06 17:07 | 10.83714 | 106.70422 | 774 ft | 149 kts | 244° |
| 2026-05-06 17:07 | 10.83314 | 106.69441 | 566 ft | 149 kts | 246° |
| 2026-05-06 17:07 | 10.82949 | 106.68479 | 392 ft | 146 kts | 247° |
| 2026-05-06 17:08 | 10.82580 | 106.67508 | 196 ft | 148 kts | 247° |
| 2026-05-06 17:08 | 10.82212 | 106.66531 | 42 ft | 145 kts | 248° |
| 2026-05-06 17:08 | 10.81898 | 106.65700 | 43 ft | 98 kts | 248° |
| 2026-05-06 17:08 | 10.81722 | 106.65249 | 42 ft | 45 kts | 248° |
| 2026-05-06 17:09 | 10.81598 | 106.65053 | 46 ft | 22 kts | 214° |
| 2026-05-06 17:09 | 10.81484 | 106.65035 | 45 ft | 18 kts | 102° |
| 2026-05-06 17:09 | 10.81518 | 106.65155 | 43 ft | 19 kts | 68° |
| 2026-05-06 17:09 | 10.81564 | 106.65283 | 42 ft | 20 kts | 70° |
| 2026-05-06 17:10 | 10.81600 | 106.65402 | 40 ft | 9 kts | 108° |
| 2026-05-06 17:10 | 10.81543 | 106.65434 | 40 ft | 11 kts | 159° |
| 2026-05-06 17:10 | 10.81465 | 106.65463 | 42 ft | 13 kts | 160° |
| 2026-05-06 17:10 | 10.81410 | 106.65525 | 42 ft | 15 kts | 75° |
| 2026-05-06 17:11 | 10.81446 | 106.65627 | 42 ft | 15 kts | 71° |
| 2026-05-06 17:11 | 10.81490 | 106.65674 | 42 ft | 9 kts | 342° |
| 2026-05-06 17:11 | 10.81517 | 106.65663 | 42 ft | 2 kts | 339° |
| 2026-05-06 17:11 | 10.81519 | 106.65662 | 42 ft | 0 kts | 339° |